Time;durP1;ratioP1;P1;durP2;ratioP2;P2;SDS_P1;SDS_P2;PMS_P1;PMS_P2;Temp;Humidity;BMP_temperature;BMP_pressure;BME280_temperature;BME280_humidity;BME280_pressure;Samples;Min_cycle;Max_cycle;Signal;HPM_P1;HPM_P2
2022/07/07 00:02:08;;;;;;;6.75;2.17;;;20.20;88.60;;;;;;5023626;28;20029;-76
2022/07/07 00:04:33;;;;;;;7.90;1.92;;;20.20;88.50;;;;;;5028041;28;20053;-73
2022/07/07 00:06:59;;;;;;;7.57;2.03;;;20.20;88.50;;;;;;5002336;28;20080;-76
2022/07/07 00:09:25;;;;;;;7.07;2.30;;;20.20;88.50;;;;;;5010482;28;20024;-74
2022/07/07 00:11:51;;;;;;;5.60;1.83;;;20.20;88.50;;;;;;4993185;28;20026;-75
2022/07/07 00:14:17;;;;;;;6.40;1.73;;;20.10;88.60;;;;;;4997540;28;20049;-75
2022/07/07 00:16:42;;;;;;;6.55;1.95;;;20.10;88.60;;;;;;4997223;28;20068;-74
2022/07/07 00:19:08;;;;;;;4.82;1.83;;;20.10;88.70;;;;;;5005016;28;20457;-74
2022/07/07 00:21:33;;;;;;;5.63;1.92;;;20.10;89.40;;;;;;4990756;28;20026;-74
2022/07/07 00:23:59;;;;;;;4.55;1.75;;;20.10;89.00;;;;;;4991245;28;20037;-75
2022/07/07 00:26:24;;;;;;;5.38;1.60;;;20.10;89.00;;;;;;5008759;28;20485;-75
2022/07/07 00:28:50;;;;;;;5.35;1.90;;;20.10;89.10;;;;;;5008429;28;20030;-75
2022/07/07 00:31:16;;;;;;;6.95;1.75;;;20.10;89.10;;;;;;5008611;28;20033;-75
2022/07/07 00:33:41;;;;;;;6.88;2.03;;;20.10;89.10;;;;;;4990940;28;20225;-75
2022/07/07 00:36:07;;;;;;;5.85;1.50;;;20.10;89.10;;;;;;4990875;28;20037;-75
2022/07/07 00:38:34;;;;;;;5.47;1.73;;;20.10;89.10;;;;;;4991070;28;20030;-75
2022/07/07 00:41:00;;;;;;;6.18;1.70;;;20.10;89.10;;;;;;5008460;28;20030;-74
2022/07/07 00:43:25;;;;;;;9.98;1.98;;;20.10;89.00;;;;;;5007384;28;20056;-75
2022/07/07 00:45:51;;;;;;;4.95;1.60;;;20.20;88.90;;;;;;5007437;28;20057;-75
2022/07/07 00:48:21;;;;;;;5.82;1.90;;;20.20;88.80;;;;;;4989926;28;20066;-75
2022/07/07 00:50:48;;;;;;;5.75;2.20;;;20.20;88.70;;;;;;5007835;28;20482;-75
2022/07/07 00:53:15;;;;;;;5.28;1.70;;;20.20;88.60;;;;;;4988374;28;20069;-74
2022/07/07 00:55:41;;;;;;;6.68;1.70;;;20.20;88.60;;;;;;5007016;28;20053;-75
2022/07/07 00:58:07;;;;;;;5.18;1.88;;;20.10;88.50;;;;;;5006715;28;20250;-75
2022/07/07 01:00:33;;;;;;;4.55;1.90;;;20.10;88.60;;;;;;5007811;28;20061;-75
2022/07/07 01:02:59;;;;;;;5.13;1.80;;;20.10;88.70;;;;;;5007283;28;20097;-75
2022/07/07 01:05:26;;;;;;;4.60;1.33;;;20.10;88.70;;;;;;5006560;28;20465;-75
2022/07/07 01:07:53;;;;;;;5.18;1.80;;;20.10;88.80;;;;;;5007734;28;20030;-75
2022/07/07 01:10:19;;;;;;;6.93;2.03;;;20.10;89.00;;;;;;5007798;28;20025;-75
2022/07/07 01:12:44;;;;;;;4.60;1.60;;;20.10;89.00;;;;;;5007645;28;20386;-74
2022/07/07 01:15:12;;;;;;;4.85;1.85;;;20.10;89.00;;;;;;5007336;28;20105;-75
2022/07/07 01:17:39;;;;;;;4.28;1.50;;;20.10;89.20;;;;;;5007611;28;20050;-75
2022/07/07 01:20:06;;;;;;;4.47;1.45;;;20.00;89.10;;;;;;4989846;28;20121;-75
2022/07/07 01:22:34;;;;;;;6.47;2.03;;;20.10;89.20;;;;;;5007089;28;20034;-75
2022/07/07 01:25:01;;;;;;;5.70;2.05;;;20.00;89.20;;;;;;5007491;28;20022;-75
2022/07/07 01:27:26;;;;;;;4.25;1.50;;;20.00;89.20;;;;;;4989643;28;20060;-74
2022/07/07 01:29:57;;;;;;;5.97;1.70;;;20.10;89.20;;;;;;5007366;28;20034;-74
2022/07/07 01:32:23;;;;;;;3.63;1.50;;;20.10;89.10;;;;;;5007087;28;20025;-74
2022/07/07 01:34:50;;;;;;;4.00;1.50;;;20.10;89.00;;;;;;5007231;28;20033;-75
2022/07/07 01:37:17;;;;;;;5.05;1.70;;;20.10;88.80;;;;;;4989815;28;20581;-74
2022/07/07 01:39:43;;;;;;;6.55;1.80;;;20.10;88.70;;;;;;4989444;28;20405;-75
2022/07/07 01:42:10;;;;;;;5.38;2.00;;;20.10;88.50;;;;;;5006809;28;20026;-75
2022/07/07 01:44:37;;;;;;;4.13;1.67;;;20.10;88.60;;;;;;4989245;28;20026;-75
2022/07/07 01:47:04;;;;;;;4.22;1.50;;;20.10;88.60;;;;;;5007114;28;20485;-75
2022/07/07 01:49:31;;;;;;;5.82;1.77;;;20.10;88.70;;;;;;5007309;28;20053;-75
2022/07/07 01:51:57;;;;;;;4.63;1.60;;;20.10;88.70;;;;;;4989045;28;20033;-75
2022/07/07 01:54:23;;;;;;;5.18;1.70;;;20.10;88.90;;;;;;5007000;28;20060;-75
2022/07/07 01:57:06;;;;;;;4.70;1.70;;;20.00;88.90;;;;;;5006791;28;20688;-75
2022/07/07 01:59:32;;;;;;;7.63;1.70;;;20.00;89.00;;;;;;5026216;28;20057;-74
2022/07/07 02:01:58;;;;;;;4.25;1.40;;;20.00;89.00;;;;;;5034333;28;20088;-75
2022/07/07 02:04:23;;;;;;;5.45;1.50;;;20.00;89.10;;;;;;5025584;28;20029;-75
2022/07/07 02:06:49;;;;;;;5.80;2.10;;;20.00;89.10;;;;;;5008834;28;20029;-75
2022/07/07 02:09:15;;;;;;;4.22;1.60;;;20.00;89.20;;;;;;5026264;28;20037;-75
2022/07/07 02:11:40;;;;;;;4.32;1.45;;;20.00;89.20;;;;;;5008266;28;20060;-75
2022/07/07 02:14:07;;;;;;;4.88;1.75;;;20.00;89.20;;;;;;5026405;28;20546;-74
2022/07/07 02:16:33;;;;;;;5.00;1.67;;;20.00;89.30;;;;;;5026507;28;20492;-75
2022/07/07 02:19:02;;;;;;;4.47;1.45;;;20.00;89.30;;;;;;5026818;28;20048;-75
2022/07/07 02:21:28;;;;;;;4.70;1.60;;;20.00;89.20;;;;;;5008440;28;20030;-75
2022/07/07 02:23:55;;;;;;;4.50;1.60;;;20.10;89.10;;;;;;5026116;28;20400;-74
2022/07/07 02:26:20;;;;;;;6.55;1.70;;;20.10;89.00;;;;;;5025166;28;20022;-74
2022/07/07 02:28:46;;;;;;;5.38;1.67;;;20.10;88.80;;;;;;5009983;28;20076;-74
2022/07/07 02:31:12;;;;;;;4.75;1.55;;;20.10;88.60;;;;;;5007912;28;20037;-74
2022/07/07 02:33:38;;;;;;;5.68;1.63;;;20.10;88.60;;;;;;5022966;28;20044;-75
2022/07/07 02:36:06;;;;;;;4.68;1.60;;;20.10;88.70;;;;;;5026356;28;20032;-75
2022/07/07 02:38:32;;;;;;;3.45;1.50;;;20.10;88.80;;;;;;5026132;28;20445;-75
2022/07/07 02:40:58;;;;;;;3.75;1.63;;;20.00;88.80;;;;;;5007321;28;20072;-74
2022/07/07 02:43:24;;;;;;;5.55;1.70;;;20.00;88.90;;;;;;5010154;28;20073;-75
2022/07/07 02:45:51;;;;;;;3.65;1.30;;;20.00;89.00;;;;;;4988853;28;20034;-74
2022/07/07 02:48:19;;;;;;;3.45;1.52;;;20.00;89.10;;;;;;5006622;28;20117;-74
2022/07/07 02:50:45;;;;;;;3.38;1.40;;;20.00;89.10;;;;;;4989667;28;20036;-74
2022/07/07 02:53:12;;;;;;;4.68;1.70;;;20.00;89.20;;;;;;4994755;28;20026;-75
2022/07/07 02:55:38;;;;;;;4.32;1.50;;;20.00;89.20;;;;;;5020775;28;20037;-75
2022/07/07 02:58:05;;;;;;;5.03;1.67;;;20.00;89.20;;;;;;5025820;28;20079;-75
2022/07/07 03:00:33;;;;;;;5.22;1.58;;;20.00;89.30;;;;;;5023716;28;20037;-75
2022/07/07 03:03:00;;;;;;;3.50;1.60;;;19.90;89.30;;;;;;5008004;28;20025;-75
2022/07/07 03:05:26;;;;;;;3.97;1.58;;;19.90;89.30;;;;;;4996402;28;20026;-75
2022/07/07 03:07:51;;;;;;;4.53;1.60;;;19.90;89.40;;;;;;5006216;28;20037;-75
2022/07/07 03:10:17;;;;;;;3.45;1.40;;;20.00;89.90;;;;;;5017906;28;20068;-75
2022/07/07 03:12:42;;;;;;;5.38;1.40;;;20.00;89.20;;;;;;5008789;28;20037;-75
2022/07/07 03:15:09;;;;;;;4.30;1.60;;;20.00;89.10;;;;;;5029516;28;20156;-78
2022/07/07 03:17:35;;;;;;;4.18;1.65;;;20.00;89.00;;;;;;5013949;28;20037;-75
2022/07/07 03:20:02;;;;;;;4.47;1.50;;;20.10;88.90;;;;;;5018030;28;20037;-76
2022/07/07 03:22:28;;;;;;;3.28;1.48;;;20.10;88.90;;;;;;4993252;28;20052;-75
2022/07/07 03:24:53;;;;;;;3.92;1.58;;;20.00;88.80;;;;;;5027654;28;20389;-74
2022/07/07 03:27:19;;;;;;;5.00;1.70;;;20.00;88.80;;;;;;5014864;28;20028;-75
2022/07/07 03:29:44;;;;;;;4.55;1.42;;;20.00;88.90;;;;;;5033254;28;20503;-74
2022/07/07 03:32:10;;;;;;;5.28;2.00;;;20.00;89.00;;;;;;5050438;28;20032;-76
2022/07/07 03:34:36;;;;;;;4.63;1.50;;;20.00;89.10;;;;;;5050890;28;20025;-75
2022/07/07 03:37:02;;;;;;;3.53;1.40;;;20.00;89.20;;;;;;5050685;28;20025;-74
2022/07/07 03:39:27;;;;;;;3.25;1.60;;;20.00;89.20;;;;;;5050868;28;20116;-74
2022/07/07 03:41:53;;;;;;;3.95;1.40;;;20.00;89.30;;;;;;5022713;28;21052;-74
2022/07/07 03:44:18;;;;;;;3.28;1.35;;;19.90;89.20;;;;;;5026539;28;20025;-75
2022/07/07 03:46:44;;;;;;;4.63;1.55;;;19.90;89.30;;;;;;5013265;28;20068;-75
2022/07/07 03:49:10;;;;;;;4.70;1.63;;;19.90;89.30;;;;;;5030881;28;20021;-75
2022/07/07 03:51:36;;;;;;;4.18;1.70;;;19.90;89.50;;;;;;5030622;28;20439;-75
2022/07/07 03:54:02;;;;;;;4.28;1.75;;;19.90;89.50;;;;;;5030550;28;20025;-75
2022/07/07 03:56:27;;;;;;;3.90;1.50;;;19.90;89.50;;;;;;4997495;28;20032;-75
2022/07/07 03:58:53;;;;;;;4.38;1.55;;;19.90;89.40;;;;;;5023395;28;20124;-75
2022/07/07 04:01:18;;;;;;;4.07;1.60;;;19.90;89.40;;;;;;5032095;28;20025;-73
2022/07/07 04:03:43;;;;;;;4.53;1.50;;;20.00;89.30;;;;;;5050818;28;20103;-75
2022/07/07 04:06:09;;;;;;;3.63;1.38;;;20.00;89.20;;;;;;5032748;28;20020;-75
2022/07/07 04:08:34;;;;;;;3.40;1.60;;;20.00;89.00;;;;;;5048546;28;20032;-75
2022/07/07 04:11:00;;;;;;;3.65;1.50;;;20.00;89.00;;;;;;5013076;28;20025;-75
2022/07/07 04:13:25;;;;;;;4.13;1.58;;;20.00;89.00;;;;;;5010610;28;20033;-76
2022/07/07 04:15:51;;;;;;;2.35;1.20;;;20.00;89.00;;;;;;4999719;28;20026;-75
2022/07/07 04:18:17;;;;;;;4.32;2.00;;;20.00;89.00;;;;;;5013089;28;20159;-75
2022/07/07 04:20:42;;;;;;;3.75;1.52;;;20.00;89.10;;;;;;5030627;28;20029;-74
2022/07/07 04:23:08;;;;;;;3.65;1.35;;;19.90;89.10;;;;;;5030310;28;20026;-75
2022/07/07 04:25:33;;;;;;;5.32;1.67;;;19.90;89.20;;;;;;5012697;28;20033;-75
2022/07/07 04:27:59;;;;;;;3.95;1.50;;;19.90;89.30;;;;;;4993771;28;20018;-74
2022/07/07 04:30:24;;;;;;;3.38;1.55;;;19.90;89.30;;;;;;5011639;28;20061;-74
2022/07/07 04:32:50;;;;;;;3.45;1.50;;;19.90;89.30;;;;;;4992628;28;20026;-75
2022/07/07 04:35:15;;;;;;;5.43;1.50;;;19.90;89.40;;;;;;5010942;28;20040;-75
2022/07/07 04:37:41;;;;;;;3.45;1.55;;;19.90;89.40;;;;;;5010787;28;20018;-76
2022/07/07 04:40:07;;;;;;;4.63;1.67;;;19.90;89.50;;;;;;5009765;28;20152;-76
2022/07/07 04:42:33;;;;;;;4.95;1.80;;;19.90;89.50;;;;;;5024653;28;20028;-76
2022/07/07 04:44:58;;;;;;;4.55;1.63;;;19.90;89.60;;;;;;5020651;28;20021;-75
2022/07/07 04:47:24;;;;;;;3.88;1.42;;;19.90;89.70;;;;;;5034297;28;20052;-75
2022/07/07 04:49:53;;;;;;;3.40;1.50;;;19.90;89.60;;;;;;5025240;28;20029;-75
2022/07/07 04:52:18;;;;;;;3.72;1.42;;;19.90;89.50;;;;;;5022270;28;20106;-75
2022/07/07 04:54:44;;;;;;;3.88;1.52;;;19.90;89.30;;;;;;5010203;28;20121;-76
2022/07/07 04:57:09;;;;;;;4.53;1.75;;;19.90;89.20;;;;;;5017924;28;20026;-75
2022/07/07 04:59:35;;;;;;;3.60;1.60;;;20.00;89.10;;;;;;5010622;28;20033;-76
2022/07/07 05:02:00;;;;;;;2.92;1.33;;;20.00;89.00;;;;;;5010233;28;20010;-77
2022/07/07 05:04:26;;;;;;;3.22;1.63;;;20.00;89.00;;;;;;5010244;28;20017;-76
2022/07/07 05:06:52;;;;;;;3.90;1.55;;;20.00;89.10;;;;;;5004524;28;20174;-76
2022/07/07 05:09:17;;;;;;;3.22;1.35;;;20.00;89.20;;;;;;5021248;28;20020;-76
2022/07/07 05:11:43;;;;;;;2.78;1.50;;;19.90;89.20;;;;;;5016410;28;20062;-76
2022/07/07 05:14:08;;;;;;;2.70;1.17;;;19.90;89.30;;;;;;5023283;28;20025;-76
2022/07/07 05:16:34;;;;;;;3.30;1.45;;;19.90;89.30;;;;;;5012428;28;20041;-77
2022/07/07 05:18:59;;;;;;;4.40;1.60;;;19.90;89.40;;;;;;5023909;28;20034;-76
2022/07/07 05:21:25;;;;;;;4.20;1.52;;;19.90;89.40;;;;;;5010653;28;20025;-75
2022/07/07 05:23:50;;;;;;;4.18;1.52;;;19.90;89.90;;;;;;5023049;28;20067;-75
2022/07/07 05:26:16;;;;;;;3.05;1.42;;;19.90;89.80;;;;;;4991570;28;20021;-76
2022/07/07 05:28:42;;;;;;;5.00;1.70;;;19.90;89.70;;;;;;5009416;28;20743;-76
2022/07/07 05:31:10;;;;;;;3.63;1.45;;;19.90;89.70;;;;;;4991719;28;20032;-76
2022/07/07 05:33:35;;;;;;;3.20;1.55;;;19.90;89.80;;;;;;4991060;28;20030;-77
2022/07/07 05:36:01;;;;;;;3.92;1.48;;;19.90;89.80;;;;;;5009227;28;20044;-76
2022/07/07 05:38:27;;;;;;;3.53;1.70;;;19.90;89.50;;;;;;5024541;28;20033;-77
2022/07/07 05:40:53;;;;;;;3.38;1.63;;;19.90;89.70;;;;;;4991062;28;20037;-76
2022/07/07 05:43:18;;;;;;;3.00;1.50;;;19.90;89.60;;;;;;4988348;28;20029;-75
2022/07/07 05:45:44;;;;;;;4.00;1.77;;;19.90;89.40;;;;;;5004425;28;20045;-76
2022/07/07 05:48:09;;;;;;;4.05;1.40;;;19.90;89.20;;;;;;4993130;28;20025;-77
2022/07/07 05:50:35;;;;;;;4.85;1.70;;;20.00;89.10;;;;;;5002890;28;20033;-77
2022/07/07 05:53:01;;;;;;;3.20;1.50;;;20.00;89.00;;;;;;5007547;28;20642;-75
2022/07/07 05:55:26;;;;;;;3.95;1.60;;;20.00;89.00;;;;;;5009214;28;20039;-76
2022/07/07 05:57:52;;;;;;;2.97;1.60;;;20.00;89.00;;;;;;5008857;28;20040;-77
2022/07/07 06:00:17;;;;;;;5.28;1.70;;;19.90;89.00;;;;;;5008093;28;20044;-76
2022/07/07 06:02:43;;;;;;;3.80;1.55;;;20.00;89.00;;;;;;4992800;28;20133;-77
2022/07/07 06:05:09;;;;;;;4.03;1.80;;;19.90;89.10;;;;;;5006591;28;20029;-77
2022/07/07 06:07:34;;;;;;;4.35;1.65;;;19.90;89.30;;;;;;4989153;28;20389;-77
2022/07/07 06:10:00;;;;;;;3.35;1.45;;;19.90;89.20;;;;;;4988846;28;20109;-77
2022/07/07 06:12:25;;;;;;;5.03;1.60;;;19.90;89.30;;;;;;4988957;28;20500;-76
2022/07/07 06:14:51;;;;;;;6.15;1.85;;;19.90;89.20;;;;;;4988494;28;20119;-78
2022/07/07 06:17:16;;;;;;;3.88;1.60;;;19.90;89.30;;;;;;4989088;28;20504;-77
2022/07/07 06:19:42;;;;;;;4.25;1.70;;;19.90;89.40;;;;;;4988579;28;20069;-77
2022/07/07 06:22:07;;;;;;;4.20;1.60;;;20.00;89.50;;;;;;4989113;28;20623;-77
2022/07/07 06:24:33;;;;;;;4.13;1.60;;;19.90;89.40;;;;;;5009023;28;20155;-77
2022/07/07 06:26:58;;;;;;;3.17;1.65;;;19.80;89.40;;;;;;5008476;28;20079;-76
2022/07/07 06:29:24;;;;;;;3.63;1.70;;;19.90;89.50;;;;;;4997458;28;20168;-77
2022/07/07 06:31:49;;;;;;;3.72;1.60;;;19.90;89.40;;;;;;5006758;28;20033;-77
2022/07/07 06:34:15;;;;;;;4.63;2.00;;;19.90;89.30;;;;;;5000028;28;20123;-78
2022/07/07 06:36:40;;;;;;;3.65;1.85;;;19.90;89.20;;;;;;5007845;28;20040;-76
2022/07/07 06:39:06;;;;;;;2.50;1.48;;;19.90;89.10;;;;;;4998980;28;20060;-77
2022/07/07 06:41:36;;;;;;;4.05;1.50;;;20.00;89.00;;;;;;4990846;28;20286;-76
2022/07/07 06:44:03;;;;;;;3.50;1.60;;;19.90;88.90;;;;;;4988108;28;20033;-76
2022/07/07 06:46:29;;;;;;;4.47;1.73;;;20.00;89.00;;;;;;4989302;28;20109;-77
2022/07/07 06:48:55;;;;;;;2.45;1.30;;;19.90;88.90;;;;;;5006224;28;20148;-77
2022/07/07 06:51:20;;;;;;;2.80;1.45;;;19.90;89.00;;;;;;4992843;28;20041;-77
2022/07/07 06:53:46;;;;;;;3.47;1.50;;;19.90;89.10;;;;;;5010123;28;20075;-76
2022/07/07 06:56:11;;;;;;;3.47;1.42;;;19.90;89.10;;;;;;5029859;28;20029;-76
2022/07/07 06:58:37;;;;;;;2.85;1.50;;;19.90;89.20;;;;;;5012391;28;20029;-77
2022/07/07 07:01:03;;;;;;;4.18;1.77;;;19.90;89.20;;;;;;5012100;28;20032;-77
2022/07/07 07:03:28;;;;;;;4.90;1.80;;;19.90;89.20;;;;;;5009409;28;20029;-76
2022/07/07 07:05:54;;;;;;;4.20;1.58;;;19.90;89.20;;;;;;5029859;28;20026;-77
2022/07/07 07:08:19;;;;;;;3.67;1.52;;;19.90;89.30;;;;;;5029323;28;20026;-77
2022/07/07 07:10:45;;;;;;;3.20;1.63;;;19.90;89.20;;;;;;5029748;28;20356;-76
2022/07/07 07:13:48;;;;;;;3.00;1.50;;;19.80;89.20;;;;;;5028238;22;20034;-76
2022/07/07 07:17:02;;;;;;;3.83;1.58;;;19.90;89.40;;;;;;4951766;28;20047;-75
2022/07/07 07:20:24;;;;;;;2.97;1.40;;;19.90;89.50;;;;;;4939943;28;20043;-76
2022/07/07 07:23:31;;;;;;;4.22;1.50;;;19.90;89.30;;;;;;4936623;28;20554;-76
2022/07/07 07:26:17;;;;;;;3.03;1.40;;;20.10;89.40;;;;;;4951615;28;20268;-76
2022/07/07 07:29:44;;;;;;;3.58;1.50;;;20.00;89.20;;;;;;5008223;28;20613;-77
2022/07/07 07:32:53;;;;;;;;;;;;;;;;;;;;;
2022/07/07 07:35:45;;;;;;;3.08;1.42;;;19.30;89.00;;;;;;5009644;28;20030;-78
2022/07/07 07:38:21;;;;;;;3.03;1.40;;;19.90;88.90;;;;;;5017493;28;20184;-77
2022/07/07 07:47:52;;;;;;;3.30;1.40;;;20.00;89.00;;;;;;5015938;28;20041;-76
2022/07/07 07:50:57;;;;;;;3.40;1.40;;;19.90;88.80;;;;;;5010164;28;20037;-76
2022/07/07 07:54:02;;;;;;;2.63;1.27;;;20.00;88.80;;;;;;5009957;28;20132;-76
2022/07/07 07:56:48;;;;;;;2.90;1.50;;;20.00;88.90;;;;;;5002367;28;20022;-77
2022/07/07 08:00:24;;;;;;;3.55;1.67;;;20.10;89.00;;;;;;5011065;28;20037;-77
2022/07/07 08:03:11;;;;;;;;;;;;;;;;;;;;;
2022/07/07 08:06:05;;;;;;;2.38;1.20;;;19.90;89.00;;;;;;5009082;28;20037;-77
2022/07/07 08:08:34;;;;;;;2.67;1.30;;;19.90;89.00;;;;;;5004142;28;20190;-77
2022/07/07 08:11:11;;;;;;;3.53;1.42;;;19.90;89.10;;;;;;5020159;28;20492;-76
2022/07/07 08:13:52;;;;;;;2.72;1.27;;;19.90;89.00;;;;;;4986121;28;20042;-76
2022/07/07 08:16:26;;;;;;;2.33;1.30;;;19.80;89.00;;;;;;4986632;28;20030;-77
2022/07/07 08:19:19;;;;;;;3.22;1.35;;;20.00;88.90;;;;;;4982244;28;20409;-77
2022/07/07 08:21:51;;;;;;;4.20;1.50;;;19.70;88.60;;;;;;4950513;28;20042;-77
2022/07/07 08:24:16;;;;;;;;;;;20.00;88.60;;;;;;5005489;28;20393;-77
2022/07/07 08:26:42;;;;;;;3.42;1.40;;;20.00;88.60;;;;;;5008243;28;19916;-77
2022/07/07 08:29:07;;;;;;;2.40;1.38;;;20.00;88.70;;;;;;4996845;28;20148;-76
2022/07/07 08:31:33;;;;;;;3.03;1.30;;;19.90;88.60;;;;;;5016721;28;20029;-76
2022/07/07 08:33:59;;;;;;;2.53;1.30;;;20.00;88.60;;;;;;4994598;28;20455;-76
2022/07/07 08:36:24;;;;;;;2.85;1.38;;;20.00;88.60;;;;;;4995255;28;20029;-77
2022/07/07 08:38:50;;;;;;;3.00;1.30;;;20.00;88.70;;;;;;5005038;28;20053;-76
2022/07/07 08:41:16;;;;;;;1.98;1.13;;;19.90;88.60;;;;;;5006620;28;20041;-75
2022/07/07 08:43:42;;;;;;;2.03;1.10;;;19.90;88.60;;;;;;5005089;28;20034;-76
2022/07/07 08:46:08;;;;;;;2.60;1.30;;;19.90;88.60;;;;;;5013653;28;20117;-77
2022/07/07 08:48:34;;;;;;;2.67;1.30;;;20.00;88.70;;;;;;4999536;28;20022;-76
2022/07/07 08:51:01;;;;;;;2.35;1.05;;;20.00;88.80;;;;;;5009235;28;20132;-77
2022/07/07 08:53:32;;;;;;;2.65;1.35;;;19.90;88.70;;;;;;5009197;28;20425;-76
2022/07/07 08:55:59;;;;;;;2.92;1.15;;;19.90;89.30;;;;;;5009609;28;20125;-77
2022/07/07 08:58:25;;;;;;;2.65;1.17;;;19.90;88.70;;;;;;5016382;28;20520;-76
2022/07/07 09:00:52;;;;;;;2.10;1.10;;;19.90;88.60;;;;;;5027021;28;20018;-76
2022/07/07 09:03:18;;;;;;;2.25;1.23;;;20.00;88.70;;;;;;5008519;28;20033;-75
2022/07/07 09:05:44;;;;;;;1.55;1.05;;;20.00;88.60;;;;;;5002412;28;20425;-75
2022/07/07 09:08:17;;;;;;;2.80;1.23;;;20.10;88.30;;;;;;5024537;28;20108;-74
2022/07/07 09:10:44;;;;;;;2.95;1.17;;;20.10;88.00;;;;;;5007178;28;20037;-76
2022/07/07 09:13:22;;;;;;;2.80;1.23;;;20.10;87.80;;;;;;5003411;28;20049;-75
2022/07/07 09:15:48;;;;;;;2.22;1.17;;;20.20;87.60;;;;;;5006012;28;20030;-75
2022/07/07 09:18:28;;;;;;;2.97;1.38;;;20.20;87.50;;;;;;5012845;28;20492;-76
2022/07/07 09:20:54;;;;;;;2.60;1.20;;;20.20;87.50;;;;;;4996714;28;20056;-75
2022/07/07 09:23:20;;;;;;;3.72;1.25;;;20.20;87.60;;;;;;5013368;28;20065;-76
2022/07/07 09:25:45;;;;;;;2.90;1.05;;;20.20;87.60;;;;;;5011303;28;20107;-76
2022/07/07 09:28:11;;;;;;;1.88;1.10;;;20.20;87.70;;;;;;5008812;28;20041;-75
2022/07/07 09:30:43;;;;;;;2.35;1.20;;;20.10;87.80;;;;;;5026541;28;20366;-74
2022/07/07 09:33:23;;;;;;;1.17;0.82;;;20.10;87.90;;;;;;5024691;28;20106;-75
2022/07/07 09:38:37;;;;;;;1.95;1.23;;;20.10;88.20;;;;;;5022422;28;20036;-75
2022/07/07 09:41:05;;;;;;;2.20;1.27;;;20.00;88.30;;;;;;4988748;28;20026;-76
2022/07/07 09:43:38;;;;;;;2.58;1.20;;;20.00;88.30;;;;;;4988340;28;20096;-75
2022/07/07 09:46:14;;;;;;;3.08;1.05;;;20.00;88.30;;;;;;4990000;28;20476;-76
2022/07/07 09:48:46;;;;;;;2.38;1.00;;;20.00;88.30;;;;;;5025615;28;20096;-76
2022/07/07 09:51:14;;;;;;;1.85;1.02;;;20.00;88.20;;;;;;5038080;28;20376;-75
2022/07/07 09:53:56;;;;;;;3.00;1.33;;;20.00;88.20;;;;;;5022876;28;20017;-76
2022/07/07 09:56:24;;;;;;;2.60;1.20;;;20.10;88.20;;;;;;5008276;28;20132;-76
2022/07/07 09:58:50;;;;;;;3.35;1.40;;;20.10;88.10;;;;;;5017361;28;20117;-76
2022/07/07 10:01:17;;;;;;;2.88;1.15;;;20.10;87.90;;;;;;5023477;28;20065;-75
2022/07/07 10:03:43;;;;;;;2.88;1.30;;;20.10;87.70;;;;;;5013160;28;20014;-74
2022/07/07 10:06:09;;;;;;;2.42;1.10;;;20.20;87.60;;;;;;5010944;28;20032;-75
2022/07/07 10:08:41;;;;;;;2.85;1.27;;;20.20;87.50;;;;;;5028275;28;20030;-75
2022/07/07 10:11:09;;;;;;;2.53;1.00;;;20.20;87.50;;;;;;5013288;28;20052;-76
2022/07/07 10:13:37;;;;;;;2.67;1.00;;;20.20;87.40;;;;;;5008647;28;20061;-75
2022/07/07 10:16:04;;;;;;;1.92;1.15;;;20.20;87.50;;;;;;5025633;28;20021;-76
2022/07/07 10:18:30;;;;;;;1.60;1.00;;;20.20;87.40;;;;;;5025056;28;20033;-76
2022/07/07 10:20:56;;;;;;;2.55;1.30;;;20.10;87.40;;;;;;5010201;28;20026;-76
2022/07/07 10:23:21;;;;;;;2.55;1.10;;;20.20;87.60;;;;;;5025662;28;20037;-76
2022/07/07 10:26:07;;;;;;;3.13;1.10;;;20.20;87.70;;;;;;5016801;28;20385;-76
2022/07/07 10:28:56;;;;;;;1.85;1.05;;;20.10;87.60;;;;;;5025119;28;20025;-76
2022/07/07 10:31:23;;;;;;;2.60;1.10;;;20.20;87.80;;;;;;4999453;28;20040;-77
2022/07/07 10:34:04;;;;;;;2.50;1.05;;;20.20;87.80;;;;;;5003416;28;20030;-76
2022/07/07 10:37:00;;;;;;;2.03;1.05;;;20.10;87.80;;;;;;5007152;28;20033;-75
2022/07/07 10:39:28;;;;;;;1.60;1.00;;;20.10;87.90;;;;;;4994317;28;20088;-75
2022/07/07 10:42:03;;;;;;;2.22;1.10;;;20.10;87.80;;;;;;5011282;28;20038;-76
2022/07/07 10:44:31;;;;;;;2.28;1.10;;;20.10;87.90;;;;;;5023316;28;20112;-75
2022/07/07 10:47:23;;;;;;;2.50;1.00;;;20.00;87.90;;;;;;5000009;28;20025;-75
2022/07/07 10:49:55;;;;;;;1.90;0.90;;;20.10;87.90;;;;;;5005868;28;20112;-76
2022/07/07 10:52:22;;;;;;;2.70;1.10;;;20.00;87.80;;;;;;5022867;28;20883;-76
2022/07/07 10:54:55;;;;;;;2.67;1.30;;;20.10;87.90;;;;;;5001763;28;20029;-75
2022/07/07 10:57:26;;;;;;;3.22;1.10;;;20.10;87.80;;;;;;5002608;28;20248;-76
2022/07/07 10:59:59;;;;;;;1.58;0.90;;;20.20;87.80;;;;;;5022288;28;20108;-76
2022/07/07 11:02:42;;;;;;;1.52;1.00;;;20.10;87.70;;;;;;5007800;28;20018;-76
2022/07/07 11:05:14;;;;;;;2.20;0.95;;;20.10;87.80;;;;;;4990270;28;20389;-76
2022/07/07 11:07:41;;;;;;;2.20;1.00;;;20.10;87.80;;;;;;5008882;28;20021;-76
2022/07/07 11:10:09;;;;;;;2.25;1.00;;;20.10;87.80;;;;;;5011941;28;20465;-76
2022/07/07 11:12:46;;;;;;;1.92;1.00;;;20.10;87.80;;;;;;5026919;28;20033;-76
2022/07/07 11:15:15;;;;;;;2.58;1.30;;;20.10;87.80;;;;;;5025775;28;20485;-76
2022/07/07 11:17:45;;;;;;;1.98;1.10;;;20.10;87.80;;;;;;5026727;28;20401;-76
2022/07/07 11:20:16;;;;;;;2.50;1.15;;;20.10;87.80;;;;;;5023651;28;20030;-76
2022/07/07 11:22:46;;;;;;;2.50;1.00;;;20.10;87.80;;;;;;5009498;28;20117;-76
2022/07/07 11:25:13;;;;;;;1.63;1.05;;;20.10;87.70;;;;;;5010079;28;20120;-75
2022/07/07 11:27:39;;;;;;;2.60;1.30;;;20.10;87.80;;;;;;5010386;28;20621;-75
2022/07/07 11:30:07;;;;;;;2.33;1.05;;;20.10;87.90;;;;;;5007008;28;20120;-75
2022/07/07 11:32:37;;;;;;;2.78;1.13;;;20.10;88.00;;;;;;5024427;28;20405;-76
2022/07/07 11:35:08;;;;;;;2.05;1.00;;;20.10;88.00;;;;;;5007210;28;20021;-75
2022/07/07 11:37:37;;;;;;;2.53;1.15;;;20.10;87.90;;;;;;5028071;28;20030;-76
2022/07/07 11:40:04;;;;;;;2.42;1.10;;;20.10;87.70;;;;;;5002328;28;20380;-75
2022/07/07 11:42:36;;;;;;;2.25;1.17;;;20.20;87.60;;;;;;5016179;28;20036;-77
2022/07/07 11:45:02;;;;;;;2.67;0.90;;;20.20;87.50;;;;;;5021219;28;20025;-77
2022/07/07 11:47:35;;;;;;;2.13;1.02;;;20.20;87.30;;;;;;5009885;28;20052;-77
2022/07/07 11:50:01;;;;;;;1.95;1.00;;;20.20;87.20;;;;;;5027731;28;20021;-76
2022/07/07 11:52:26;;;;;;;2.72;1.23;;;20.20;87.20;;;;;;5019823;28;20370;-77
2022/07/07 11:54:52;;;;;;;3.72;1.10;;;20.20;87.20;;;;;;5010990;28;20057;-76
2022/07/07 11:57:37;;;;;;;2.17;1.20;;;20.20;87.30;;;;;;5019632;28;20025;-75
2022/07/07 12:00:12;;;;;;;3.05;1.10;;;20.20;87.50;;;;;;5008805;28;20025;-78
2022/07/07 12:02:37;;;;;;;2.45;1.20;;;20.20;87.60;;;;;;5017038;28;20049;-76
2022/07/07 12:05:04;;;;;;;2.25;0.90;;;20.20;87.70;;;;;;5027168;28;20053;-77
2022/07/07 12:07:30;;;;;;;2.58;1.00;;;20.10;87.70;;;;;;5010420;28;20190;-76
2022/07/07 12:09:56;;;;;;;1.92;1.00;;;20.10;87.80;;;;;;5010629;28;20029;-76
2022/07/07 12:12:21;;;;;;;2.17;0.90;;;20.10;87.90;;;;;;5010254;28;20229;-75
2022/07/07 12:14:47;;;;;;;1.52;1.00;;;20.10;87.90;;;;;;5028038;28;20029;-75
2022/07/07 12:17:12;;;;;;;1.73;0.90;;;20.10;88.00;;;;;;5012311;28;20025;-75
2022/07/07 12:19:49;;;;;;;1.52;1.10;;;20.10;88.00;;;;;;5010152;28;20040;-75
2022/07/07 12:22:33;;;;;;;2.42;1.15;;;20.10;88.00;;;;;;5010120;28;20056;-75
2022/07/07 12:25:01;;;;;;;2.63;1.00;;;20.10;88.00;;;;;;5027972;28;20032;-76
2022/07/07 12:27:26;;;;;;;2.28;0.98;;;20.10;88.00;;;;;;5020406;28;20041;-76
2022/07/07 12:30:00;;;;;;;2.25;1.02;;;20.10;88.00;;;;;;5026851;28;20056;-75
2022/07/07 12:32:26;;;;;;;1.67;0.90;;;20.10;87.90;;;;;;5026130;28;20473;-75
2022/07/07 12:34:52;;;;;;;2.55;1.02;;;20.10;87.80;;;;;;5027671;28;20104;-76
2022/07/07 12:37:17;;;;;;;2.00;0.77;;;20.20;87.80;;;;;;5027749;28;20021;-77
2022/07/07 12:39:43;;;;;;;1.60;1.00;;;20.20;87.70;;;;;;5008597;28;20017;-77
2022/07/07 12:42:09;;;;;;;2.33;1.13;;;20.20;87.70;;;;;;5002355;28;20079;-75
2022/07/07 12:44:35;;;;;;;1.38;0.88;;;20.10;87.70;;;;;;5017413;28;20083;-75
2022/07/07 12:47:01;;;;;;;1.17;0.75;;;20.10;87.80;;;;;;5009570;28;20477;-76
2022/07/07 12:49:28;;;;;;;1.65;1.00;;;20.10;87.90;;;;;;5026975;28;20109;-75
2022/07/07 12:51:55;;;;;;;1.35;0.82;;;20.10;87.90;;;;;;5009770;28;20386;-75
2022/07/07 12:54:31;;;;;;;1.77;1.00;;;20.10;87.90;;;;;;5019699;28;20036;-76
2022/07/07 12:57:03;;;;;;;2.38;1.00;;;20.10;88.00;;;;;;5002558;28;20040;-75
2022/07/07 12:59:44;;;;;;;1.98;1.10;;;20.10;88.00;;;;;;5018022;28;20036;-75
2022/07/07 13:02:10;;;;;;;1.65;0.93;;;20.10;88.00;;;;;;5007743;28;20022;-78
2022/07/07 13:04:36;;;;;;;1.27;0.85;;;20.10;88.10;;;;;;4992163;28;20026;-76
2022/07/07 13:07:01;;;;;;;1.67;0.90;;;20.10;88.00;;;;;;4992750;28;20109;-76
2022/07/07 13:09:27;;;;;;;1.52;0.88;;;20.10;88.10;;;;;;4992590;28;20161;-77
2022/07/07 13:11:53;;;;;;;2.75;1.17;;;20.10;88.20;;;;;;5009992;28;20025;-77